Time;durP1;ratioP1;P1;durP2;ratioP2;P2;SDS_P1;SDS_P2;PMS_P1;PMS_P2;Temp;Humidity;BMP_temperature;BMP_pressure;BME280_temperature;BME280_humidity;BME280_pressure;Samples;Min_cycle;Max_cycle;Signal;HPM_P1;HPM_P2
2023/02/13 00:01:53;;;;;;;25.03;11.83;;;7.00;99.90;;;;;;4190272;28;20475;-78
2023/02/13 00:03:55;;;;;;;27.10;12.30;;;7.00;99.90;;;;;;4191968;28;20434;-79
2023/02/13 00:05:57;;;;;;;24.20;11.67;;;6.90;99.90;;;;;;4184882;28;20467;-78
2023/02/13 00:07:59;;;;;;;29.10;12.63;;;6.90;99.90;;;;;;4187010;28;20455;-78
2023/02/13 00:10:02;;;;;;;24.47;12.17;;;7.00;99.90;;;;;;4194189;28;20912;-79
2023/02/13 00:12:05;;;;;;;25.33;11.73;;;6.90;99.90;;;;;;4194375;28;21008;-79
2023/02/13 00:14:07;;;;;;;25.53;12.70;;;6.90;99.90;;;;;;4187347;28;20550;-78
2023/02/13 00:16:10;;;;;;;29.53;12.83;;;6.90;99.90;;;;;;4192427;28;20459;-78
2023/02/13 00:18:11;;;;;;;23.90;12.20;;;6.90;99.90;;;;;;4192712;28;20539;-78
2023/02/13 00:20:14;;;;;;;27.07;12.57;;;6.90;99.90;;;;;;4187054;28;20459;-79
2023/02/13 00:22:16;;;;;;;30.63;14.27;;;6.80;99.90;;;;;;4189870;28;21059;-79
2023/02/13 00:24:18;;;;;;;30.33;13.03;;;6.80;99.90;;;;;;4195523;28;21040;-78
2023/02/13 00:26:21;;;;;;;28.83;13.30;;;6.80;99.90;;;;;;4192060;28;20557;-78
2023/02/13 00:28:23;;;;;;;25.90;12.17;;;6.80;99.90;;;;;;4190032;28;20498;-78
2023/02/13 00:30:46;;;;;;;28.50;12.97;;;6.80;99.90;;;;;;4192292;28;20460;-79
2023/02/13 00:32:48;;;;;;;34.67;12.40;;;6.80;99.90;;;;;;4182810;28;20459;-78
2023/02/13 00:34:50;;;;;;;29.37;13.03;;;6.80;99.90;;;;;;4195242;28;20450;-78
2023/02/13 00:36:52;;;;;;;27.07;12.40;;;6.80;99.90;;;;;;4193217;28;20478;-78
2023/02/13 00:38:54;;;;;;;29.27;12.53;;;6.80;99.90;;;;;;4193459;28;20478;-78
2023/02/13 00:40:56;;;;;;;26.57;11.97;;;6.80;99.90;;;;;;4198345;28;20524;-78
2023/02/13 00:43:00;;;;;;;24.07;11.80;;;6.80;99.90;;;;;;4194229;28;20819;-78
2023/02/13 00:45:01;;;;;;;31.57;12.90;;;6.80;99.90;;;;;;4198610;28;20451;-78
2023/02/13 00:47:03;;;;;;;27.60;11.67;;;6.80;99.90;;;;;;4195683;28;20548;-79
2023/02/13 00:49:06;;;;;;;30.67;12.93;;;6.80;99.90;;;;;;4197376;28;20502;-78
2023/02/13 00:51:09;;;;;;;27.23;12.07;;;6.80;99.90;;;;;;4193539;28;20831;-79
2023/02/13 00:53:11;;;;;;;25.17;11.70;;;6.80;99.90;;;;;;4195264;28;20588;-78
2023/02/13 00:55:13;;;;;;;25.97;11.60;;;6.80;99.90;;;;;;4193679;28;20544;-78
2023/02/13 00:57:15;;;;;;;27.83;12.57;;;6.80;99.90;;;;;;4196080;28;20927;-78
2023/02/13 00:59:18;;;;;;;25.63;13.00;;;6.70;99.90;;;;;;4195188;28;20472;-79
2023/02/13 01:01:22;;;;;;;23.97;11.73;;;6.70;99.90;;;;;;4194416;28;20483;-80
2023/02/13 01:03:24;;;;;;;26.03;12.07;;;6.70;99.90;;;;;;4196070;28;20500;-78
2023/02/13 01:05:27;;;;;;;28.20;12.33;;;6.90;99.90;;;;;;4195500;28;20980;-79
2023/02/13 01:07:29;;;;;;;23.43;11.50;;;6.70;99.90;;;;;;4195243;28;20453;-78
2023/02/13 01:09:31;;;;;;;24.07;11.13;;;6.80;99.90;;;;;;4194153;28;20478;-79
2023/02/13 01:11:33;;;;;;;29.10;12.13;;;6.70;99.90;;;;;;4193441;28;20509;-80
2023/02/13 01:13:35;;;;;;;22.23;11.03;;;6.70;99.90;;;;;;4186525;28;20521;-78
2023/02/13 01:15:39;;;;;;;23.80;11.80;;;6.70;99.90;;;;;;4193573;28;20549;-78
2023/02/13 01:17:41;;;;;;;23.53;11.37;;;6.70;99.90;;;;;;4194803;28;20475;-78
2023/02/13 01:19:43;;;;;;;25.17;11.53;;;6.70;99.90;;;;;;4192786;28;21114;-78
2023/02/13 01:21:45;;;;;;;23.77;10.50;;;6.70;99.90;;;;;;4195957;28;20474;-79
2023/02/13 01:23:47;;;;;;;24.27;11.73;;;6.70;99.90;;;;;;4196485;28;20466;-79
2023/02/13 01:25:50;;;;;;;21.70;10.33;;;6.70;99.90;;;;;;4197259;28;20581;-78
2023/02/13 01:27:52;;;;;;;29.27;12.70;;;6.70;99.90;;;;;;4211432;28;21877;-78
2023/02/13 01:29:54;;;;;;;26.60;12.37;;;6.70;99.90;;;;;;4197468;28;20443;-79
2023/02/13 01:31:57;;;;;;;25.90;11.90;;;6.70;99.90;;;;;;4195459;28;20471;-78
2023/02/13 01:34:00;;;;;;;29.47;13.00;;;6.70;99.90;;;;;;4198083;28;20463;-79
2023/02/13 01:36:06;;;;;;;24.10;11.70;;;6.70;99.90;;;;;;4198353;28;20466;-79
2023/02/13 01:38:08;;;;;;;29.53;12.47;;;6.70;99.90;;;;;;4198591;28;20494;-79
2023/02/13 01:40:12;;;;;;;29.30;12.80;;;6.70;99.90;;;;;;4195750;28;20561;-79
2023/02/13 01:42:16;;;;;;;29.03;12.83;;;6.70;99.90;;;;;;4195870;28;20492;-79
2023/02/13 01:44:48;;;;;;;29.77;12.97;;;6.70;99.90;;;;;;4194193;28;20506;-78
2023/02/13 01:46:50;;;;;;;26.10;12.13;;;6.70;99.90;;;;;;4197714;28;20960;-79
2023/02/13 01:48:57;;;;;;;24.83;11.90;;;6.70;99.90;;;;;;4198679;28;21138;-78
2023/02/13 01:51:02;;;;;;;34.00;12.83;;;6.70;99.90;;;;;;4194433;28;20490;-80
2023/02/13 01:53:09;;;;;;;26.87;12.67;;;6.60;99.90;;;;;;4198418;28;20455;-78
2023/02/13 01:55:12;;;;;;;30.87;13.73;;;6.60;99.90;;;;;;4196911;28;20700;-79
2023/02/13 01:57:18;;;;;;;29.70;13.23;;;6.60;99.90;;;;;;4196859;28;20486;-79
2023/02/13 01:59:24;;;;;;;31.83;12.60;;;6.70;99.90;;;;;;4198745;28;20498;-79
2023/02/13 02:01:28;;;;;;;27.33;11.70;;;6.70;99.90;;;;;;4198205;28;20499;-79
2023/02/13 02:03:33;;;;;;;29.90;12.70;;;6.60;99.90;;;;;;4195986;28;20945;-79
2023/02/13 02:05:37;;;;;;;26.47;12.23;;;6.60;99.90;;;;;;4197225;28;20462;-78
2023/02/13 02:07:41;;;;;;;29.73;12.60;;;6.60;99.90;;;;;;4195455;28;21011;-79
2023/02/13 02:09:44;;;;;;;29.07;12.73;;;6.60;99.90;;;;;;4196392;28;20463;-78
2023/02/13 02:11:52;;;;;;;27.90;13.27;;;6.60;99.90;;;;;;4196816;28;20559;-79
2023/02/13 02:13:54;;;;;;;30.77;12.77;;;6.60;99.90;;;;;;4198357;28;20529;-78
2023/02/13 02:15:56;;;;;;;28.10;12.83;;;6.60;99.90;;;;;;4192516;28;20452;-78
2023/02/13 02:17:59;;;;;;;26.70;12.33;;;6.60;99.90;;;;;;4194880;28;20486;-79
2023/02/13 02:20:14;;;;;;;31.90;12.73;;;6.60;99.90;;;;;;4197292;28;20509;-79
2023/02/13 02:23:00;;;;;;;27.90;12.30;;;6.60;99.90;;;;;;4196188;28;20532;-79
2023/02/13 02:25:40;;;;;;;29.10;12.90;;;6.60;99.90;;;;;;4194848;28;20471;-79
2023/02/13 02:28:16;;;;;;;30.37;12.47;;;6.60;99.90;;;;;;4189422;28;20451;-79
2023/02/13 02:30:54;;;;;;;27.27;11.97;;;6.60;99.90;;;;;;4196282;28;20466;-79
2023/02/13 02:33:07;;;;;;;28.80;11.60;;;6.60;99.90;;;;;;4190425;28;20552;-79
2023/02/13 02:35:19;;;;;;;31.30;11.90;;;6.60;99.90;;;;;;4196858;28;20553;-80
2023/02/13 02:37:39;;;;;;;26.57;11.90;;;6.60;99.90;;;;;;4196451;28;20990;-79
2023/02/13 02:39:50;;;;;;;28.73;12.90;;;6.50;99.90;;;;;;4195697;28;20972;-79
2023/02/13 02:42:04;;;;;;;29.80;11.80;;;6.50;99.90;;;;;;4196853;28;20516;-79
2023/02/13 02:44:20;;;;;;;32.40;13.23;;;6.60;99.90;;;;;;4195963;28;20542;-80
2023/02/13 02:46:27;;;;;;;31.10;12.83;;;6.50;99.90;;;;;;4190314;28;20553;-79
2023/02/13 02:51:01;;;;;;;32.00;12.50;;;6.50;99.90;;;;;;4191446;28;20488;-79
2023/02/13 02:53:18;;;;;;;31.63;11.63;;;6.50;99.90;;;;;;4194566;28;20553;-79
2023/02/13 02:55:31;;;;;;;29.33;11.87;;;6.50;99.90;;;;;;4192818;28;20493;-80
2023/02/13 03:07:06;;;;;;;27.00;10.80;;;6.40;99.90;;;;;;4196022;28;20449;-79
2023/02/13 03:13:53;;;;;;;28.47;10.90;;;6.40;99.90;;;;;;4193608;28;20447;-79
2023/02/13 03:23:13;;;;;;;28.07;10.57;;;6.40;99.90;;;;;;4194488;28;20547;-79
2023/02/13 03:25:29;;;;;;;21.80;9.60;;;6.40;99.90;;;;;;4191934;28;20471;-78
2023/02/13 03:30:08;;;;;;;20.57;8.30;;;6.30;99.90;;;;;;4190447;28;21412;-79
2023/02/13 03:32:18;;;;;;;20.93;8.77;;;6.30;99.90;;;;;;4187199;28;20510;-79
2023/02/13 03:34:24;;;;;;;21.53;8.40;;;6.30;99.90;;;;;;4193054;28;20816;-79
2023/02/13 03:39:09;;;;;;;19.03;7.87;;;6.20;99.90;;;;;;4191019;28;20493;-79
2023/02/13 03:41:18;;;;;;;17.60;7.37;;;6.30;99.90;;;;;;4194065;28;20478;-79
2023/02/13 03:43:20;;;;;;;15.40;6.83;;;6.30;99.90;;;;;;4194426;28;20458;-79
2023/02/13 03:47:49;;;;;;;14.67;6.67;;;6.30;99.90;;;;;;4195041;28;20465;-80
2023/02/13 03:50:07;;;;;;;14.37;6.30;;;6.30;99.90;;;;;;4194591;28;20968;-79
2023/02/13 03:52:16;;;;;;;15.87;6.90;;;6.30;99.90;;;;;;4194006;28;20554;-79
2023/02/13 03:54:21;;;;;;;14.90;6.00;;;6.30;99.90;;;;;;4194733;28;20455;-78
2023/02/13 04:01:13;;;;;;;12.23;5.30;;;6.30;99.90;;;;;;4192342;28;20458;-79
2023/02/13 04:03:21;;;;;;;12.27;5.53;;;6.30;99.90;;;;;;4194104;28;20450;-79
2023/02/13 04:05:28;;;;;;;11.40;4.87;;;6.20;99.90;;;;;;4195570;28;20967;-79
2023/02/13 04:07:32;;;;;;;11.70;5.30;;;6.20;99.90;;;;;;4191029;28;20477;-79
2023/02/13 04:09:36;;;;;;;13.07;5.53;;;6.50;99.90;;;;;;4190491;28;20450;-79
2023/02/13 04:11:44;;;;;;;10.73;5.50;;;6.20;99.90;;;;;;4197651;28;20470;-79
2023/02/13 04:13:51;;;;;;;10.30;4.90;;;6.20;99.90;;;;;;4198627;28;20482;-79
2023/02/13 04:15:57;;;;;;;12.73;5.50;;;6.20;99.90;;;;;;4197730;28;20942;-79
2023/02/13 04:18:07;;;;;;;10.40;5.47;;;6.20;99.90;;;;;;4197298;28;20489;-79
2023/02/13 04:20:09;;;;;;;12.83;5.40;;;6.20;99.90;;;;;;4198338;28;20462;-78
2023/02/13 04:22:12;;;;;;;11.87;5.10;;;6.20;99.90;;;;;;4197349;28;20489;-79
2023/02/13 04:24:15;;;;;;;8.20;4.67;;;6.20;99.90;;;;;;4189026;28;20860;-80
2023/02/13 04:26:20;;;;;;;10.10;5.40;;;6.20;99.90;;;;;;4193148;28;20485;-79
2023/02/13 04:28:22;;;;;;;9.97;5.00;;;6.20;99.90;;;;;;4194982;28;20553;-79
2023/02/13 04:30:24;;;;;;;10.00;5.03;;;6.20;99.90;;;;;;4194854;28;20537;-79
2023/02/13 04:32:26;;;;;;;14.57;5.60;;;6.20;99.90;;;;;;4193737;28;20478;-79
2023/02/13 04:34:28;;;;;;;12.00;5.53;;;6.20;99.90;;;;;;4192060;28;20558;-79
2023/02/13 04:36:30;;;;;;;12.47;5.17;;;6.10;99.90;;;;;;4190797;28;20755;-78
2023/02/13 04:38:35;;;;;;;10.30;5.03;;;6.10;99.90;;;;;;4190787;28;20568;-79
2023/02/13 04:40:38;;;;;;;9.73;4.93;;;6.10;99.90;;;;;;4189222;28;20448;-78
2023/02/13 04:42:40;;;;;;;14.07;4.90;;;6.10;99.90;;;;;;4194619;28;20821;-79
2023/02/13 04:44:42;;;;;;;12.17;5.40;;;6.10;99.90;;;;;;4191099;28;20483;-78
2023/02/13 04:46:44;;;;;;;14.50;6.77;;;6.10;99.90;;;;;;4190922;28;20504;-79
2023/02/13 04:48:46;;;;;;;15.73;7.03;;;6.10;99.90;;;;;;4193527;28;20451;-79
2023/02/13 04:50:48;;;;;;;13.47;5.93;;;6.10;99.90;;;;;;4194478;28;20475;-79
2023/02/13 04:52:54;;;;;;;13.60;5.50;;;6.10;99.90;;;;;;4193835;28;20545;-79
2023/02/13 04:54:56;;;;;;;10.77;5.07;;;6.10;99.90;;;;;;4190012;28;20445;-80
2023/02/13 04:56:59;;;;;;;14.13;6.03;;;6.00;99.90;;;;;;4193906;28;20462;-79
2023/02/13 04:59:01;;;;;;;12.47;6.10;;;6.10;99.90;;;;;;4194246;28;20573;-79
2023/02/13 05:01:03;;;;;;;13.93;5.70;;;6.00;99.90;;;;;;4193587;28;20478;-79
2023/02/13 05:03:07;;;;;;;12.97;6.03;;;6.00;99.90;;;;;;4193314;28;20484;-79
2023/02/13 05:05:09;;;;;;;12.07;5.93;;;6.00;99.90;;;;;;4189975;28;20813;-79
2023/02/13 05:07:11;;;;;;;12.53;5.43;;;6.00;99.90;;;;;;4191725;28;20943;-79
2023/02/13 05:09:13;;;;;;;13.00;5.83;;;6.00;99.90;;;;;;4192396;28;20533;-79
2023/02/13 05:11:15;;;;;;;16.80;5.53;;;6.00;99.90;;;;;;4186397;28;20486;-78
2023/02/13 05:13:20;;;;;;;15.80;5.73;;;6.00;99.90;;;;;;4190698;28;20473;-78
2023/02/13 05:15:23;;;;;;;12.43;5.60;;;6.00;99.90;;;;;;4193839;28;21042;-80
2023/02/13 05:17:25;;;;;;;14.67;5.57;;;6.00;99.90;;;;;;4195280;28;20459;-79
2023/02/13 05:19:27;;;;;;;13.33;5.23;;;6.00;99.90;;;;;;4193121;28;20536;-79
2023/02/13 05:23:48;;;;;;;12.00;5.20;;;6.00;99.90;;;;;;4187207;28;20846;-79
2023/02/13 05:25:50;;;;;;;11.07;5.23;;;6.00;99.90;;;;;;4194418;28;20462;-79
2023/02/13 05:27:52;;;;;;;10.50;5.17;;;6.00;99.90;;;;;;4196379;28;20888;-79
2023/02/13 05:29:54;;;;;;;11.87;5.60;;;6.10;99.90;;;;;;4193183;28;20888;-79
2023/02/13 05:31:58;;;;;;;14.47;5.83;;;6.00;99.90;;;;;;4196088;28;20867;-79
2023/02/13 05:34:00;;;;;;;15.17;5.80;;;6.00;99.90;;;;;;4195774;28;20819;-78
2023/02/13 05:36:02;;;;;;;10.63;4.90;;;6.00;99.90;;;;;;4197537;28;20447;-79
2023/02/13 05:38:04;;;;;;;10.90;4.87;;;6.00;99.90;;;;;;4194915;28;20462;-79
2023/02/13 05:40:07;;;;;;;11.93;5.17;;;6.30;99.90;;;;;;4196825;28;20459;-79
2023/02/13 05:42:09;;;;;;;11.40;4.90;;;6.00;99.90;;;;;;4194864;28;20478;-79
2023/02/13 05:44:11;;;;;;;13.47;5.60;;;6.00;99.90;;;;;;4193552;28;20479;-79
2023/02/13 05:46:15;;;;;;;13.43;6.10;;;6.00;99.90;;;;;;4195471;28;20514;-79
2023/02/13 05:48:16;;;;;;;11.47;4.93;;;6.00;99.90;;;;;;4194056;28;20542;-79
2023/02/13 05:50:19;;;;;;;9.27;4.80;;;6.00;99.90;;;;;;4192562;28;20998;-78
2023/02/13 05:52:21;;;;;;;12.20;4.70;;;6.00;99.90;;;;;;4192594;28;20853;-79
2023/02/13 05:54:22;;;;;;;12.27;4.97;;;6.00;99.90;;;;;;4197116;28;20541;-79
2023/02/13 05:56:24;;;;;;;13.57;6.43;;;6.00;99.90;;;;;;4197812;28;20466;-79
2023/02/13 05:58:26;;;;;;;13.20;6.10;;;6.00;99.90;;;;;;4197986;28;20582;-79
2023/02/13 06:00:28;;;;;;;13.37;5.70;;;6.00;99.90;;;;;;4192559;28;20556;-79
2023/02/13 06:02:31;;;;;;;11.80;5.83;;;5.90;99.90;;;;;;4194889;28;20493;-79
2023/02/13 06:04:33;;;;;;;13.37;6.33;;;6.00;99.90;;;;;;4195375;28;20512;-79
2023/02/13 06:06:35;;;;;;;13.00;5.73;;;5.90;99.90;;;;;;4198007;28;20447;-79
2023/02/13 06:08:37;;;;;;;12.93;5.53;;;5.90;99.90;;;;;;4206282;28;20449;-79
2023/02/13 06:10:39;;;;;;;15.73;6.50;;;5.90;99.90;;;;;;4185963;28;20549;-79
2023/02/13 06:12:46;;;;;;;14.87;6.37;;;5.90;99.90;;;;;;4197327;28;20453;-80
2023/02/13 06:14:47;;;;;;;13.43;6.17;;;5.90;99.90;;;;;;4191099;28;20459;-79
2023/02/13 06:16:50;;;;;;;12.90;5.67;;;5.90;99.90;;;;;;4194982;28;20481;-79
2023/02/13 06:18:53;;;;;;;15.10;6.23;;;5.90;99.90;;;;;;4190832;28;20487;-80
2023/02/13 06:20:55;;;;;;;12.43;5.90;;;5.90;99.90;;;;;;4196955;28;20516;-81
2023/02/13 06:22:57;;;;;;;16.80;7.53;;;5.90;99.90;;;;;;4197456;28;20477;-81
2023/02/13 06:24:59;;;;;;;19.63;7.97;;;5.90;99.90;;;;;;4189185;28;20456;-81
2023/02/13 06:27:01;;;;;;;18.63;8.80;;;5.90;99.90;;;;;;4196541;28;20464;-81
2023/02/13 06:29:03;;;;;;;15.97;7.33;;;6.20;99.90;;;;;;4192362;28;20503;-81
2023/02/13 06:31:05;;;;;;;15.50;7.73;;;5.90;99.90;;;;;;4195022;28;20510;-79
2023/02/13 06:33:07;;;;;;;13.33;5.90;;;5.90;99.90;;;;;;4194646;28;20531;-79
2023/02/13 06:35:14;;;;;;;13.47;6.20;;;6.10;99.90;;;;;;4194878;28;20546;-79
2023/02/13 06:37:19;;;;;;;15.90;6.50;;;5.90;99.90;;;;;;4191998;28;20451;-79
2023/02/13 06:39:21;;;;;;;13.90;6.20;;;5.90;99.90;;;;;;4195607;28;20478;-79
2023/02/13 06:41:23;;;;;;;16.07;6.37;;;5.90;99.90;;;;;;4196497;28;20470;-78
2023/02/13 06:43:25;;;;;;;15.63;6.40;;;5.90;99.90;;;;;;4195238;28;20462;-80
2023/02/13 06:45:27;;;;;;;13.10;5.60;;;5.80;99.90;;;;;;4186641;28;20457;-79
2023/02/13 06:47:29;;;;;;;13.13;5.90;;;5.80;99.90;;;;;;4192588;28;20516;-80
2023/02/13 06:49:31;;;;;;;14.47;6.10;;;5.80;99.90;;;;;;4188966;28;20447;-80
2023/02/13 06:51:37;;;;;;;13.63;6.27;;;5.80;99.90;;;;;;4192918;28;20471;-80
2023/02/13 06:53:39;;;;;;;12.53;5.90;;;5.80;99.90;;;;;;4193617;28;20496;-79
2023/02/13 06:55:41;;;;;;;11.50;5.60;;;5.80;99.90;;;;;;4195621;28;20519;-79
2023/02/13 06:57:43;;;;;;;12.93;5.87;;;5.80;99.90;;;;;;4193429;28;21037;-80
2023/02/13 06:59:45;;;;;;;12.30;5.33;;;5.80;99.90;;;;;;4197070;28;20478;-80
2023/02/13 07:01:47;;;;;;;13.23;6.00;;;5.80;99.90;;;;;;4193753;28;20468;-79
2023/02/13 07:03:52;;;;;;;12.43;6.40;;;5.60;99.90;;;;;;4194583;28;20508;-80
2023/02/13 07:05:55;;;;;;;15.43;5.43;;;5.90;99.90;;;;;;4196242;28;20494;-80
2023/02/13 07:07:58;;;;;;;12.90;5.83;;;5.90;99.90;;;;;;4194124;28;20450;-79
2023/02/13 07:10:00;;;;;;;11.90;6.03;;;5.90;99.90;;;;;;4195611;28;20516;-78
2023/02/13 07:12:03;;;;;;;12.37;5.87;;;5.90;99.90;;;;;;4190397;28;20509;-79
2023/02/13 07:14:07;;;;;;;15.90;6.23;;;5.90;99.90;;;;;;4188694;28;20462;-80
2023/02/13 07:16:09;;;;;;;11.37;5.43;;;6.00;99.90;;;;;;4193268;28;20459;-80
2023/02/13 07:18:11;;;;;;;13.53;5.60;;;5.90;99.90;;;;;;4193234;28;21018;-80
2023/02/13 07:20:13;;;;;;;12.23;5.70;;;5.90;99.90;;;;;;4189752;28;20518;-79
2023/02/13 07:22:15;;;;;;;14.23;6.13;;;5.90;99.90;;;;;;4192689;28;20539;-79
2023/02/13 07:24:19;;;;;;;14.70;5.83;;;5.90;99.90;;;;;;4192113;28;20871;-79
2023/02/13 07:26:21;;;;;;;11.33;5.13;;;6.10;99.90;;;;;;4190799;28;20553;-80
2023/02/13 07:28:23;;;;;;;10.33;4.97;;;6.00;99.90;;;;;;4193116;28;20972;-80
2023/02/13 07:30:25;;;;;;;9.50;4.80;;;6.00;99.90;;;;;;4193096;28;20485;-80
2023/02/13 07:32:26;;;;;;;11.17;5.50;;;6.00;99.90;;;;;;4196101;28;20944;-79
2023/02/13 07:34:28;;;;;;;10.73;5.03;;;6.00;99.90;;;;;;4193255;28;20451;-77
2023/02/13 07:36:30;;;;;;;10.33;5.13;;;6.00;99.90;;;;;;4196424;28;21021;-79
2023/02/13 07:38:33;;;;;;;12.90;4.90;;;6.10;99.90;;;;;;4196790;28;20540;-80
2023/02/13 07:40:36;;;;;;;9.23;4.77;;;6.10;99.90;;;;;;4198640;28;20996;-80
2023/02/13 07:42:38;;;;;;;11.13;5.43;;;6.10;99.90;;;;;;4198420;28;20474;-80
2023/02/13 07:44:40;;;;;;;11.33;5.37;;;6.10;99.90;;;;;;4197882;28;20477;-80
2023/02/13 07:46:42;;;;;;;10.83;5.63;;;6.10;99.90;;;;;;4194483;28;20448;-79
2023/02/13 07:48:44;;;;;;;10.13;5.40;;;6.20;99.90;;;;;;4196662;28;21484;-81
2023/02/13 07:50:46;;;;;;;12.70;5.60;;;6.20;99.90;;;;;;4190758;28;20504;-80
2023/02/13 07:52:53;;;;;;;12.10;6.20;;;6.20;99.90;;;;;;4194353;28;21145;-79
2023/02/13 07:54:55;;;;;;;11.37;5.90;;;6.30;99.90;;;;;;4193825;28;20478;-81
2023/02/13 07:56:59;;;;;;;13.67;6.73;;;6.30;99.90;;;;;;4195671;28;20454;-80
2023/02/13 07:59:01;;;;;;;15.03;5.90;;;6.30;99.90;;;;;;4192775;28;20481;-79
2023/02/13 08:01:07;;;;;;;13.83;6.70;;;6.30;99.90;;;;;;4192437;28;20506;-79
2023/02/13 08:03:09;;;;;;;11.97;6.30;;;6.30;99.90;;;;;;4191854;28;20566;-79
2023/02/13 08:05:12;;;;;;;12.57;6.47;;;6.40;99.90;;;;;;4193736;28;20463;-80
2023/02/13 08:07:15;;;;;;;14.57;6.70;;;6.40;99.90;;;;;;4188467;28;20984;-80
2023/02/13 08:11:54;;;;;;;13.47;6.40;;;6.40;99.90;;;;;;4195007;28;20513;-82
2023/02/13 08:13:58;;;;;;;12.73;6.90;;;6.40;99.90;;;;;;4193812;28;20458;-80
2023/02/13 08:15:59;;;;;;;12.23;6.10;;;6.50;99.90;;;;;;4193848;28;21194;-81
2023/02/13 08:18:02;;;;;;;11.20;6.27;;;6.50;99.90;;;;;;4197241;28;20450;-81
2023/02/13 08:20:06;;;;;;;10.90;6.00;;;6.50;99.90;;;;;;4190787;28;20519;-81
2023/02/13 08:22:08;;;;;;;10.47;5.80;;;6.50;99.90;;;;;;4191160;28;20463;-81
2023/02/13 08:24:10;;;;;;;11.10;6.37;;;6.50;99.90;;;;;;4196431;28;20908;-80
2023/02/13 08:26:12;;;;;;;10.90;6.17;;;6.50;99.90;;;;;;4192361;28;20898;-80
2023/02/13 08:28:15;;;;;;;11.13;5.87;;;6.50;99.90;;;;;;4187651;28;20512;-80
2023/02/13 08:30:18;;;;;;;13.43;6.43;;;6.60;99.90;;;;;;4193538;28;20493;-80
2023/02/13 08:32:20;;;;;;;10.80;6.03;;;6.60;99.90;;;;;;4196575;28;20509;-80
2023/02/13 08:34:22;;;;;;;12.20;5.90;;;6.60;99.90;;;;;;4212461;28;20489;-80
2023/02/13 08:36:25;;;;;;;13.60;7.63;;;6.60;99.90;;;;;;4192818;28;20466;-80
2023/02/13 08:38:26;;;;;;;12.37;6.70;;;6.60;99.90;;;;;;4195228;28;20475;-80
2023/02/13 08:40:28;;;;;;;11.10;6.07;;;6.60;99.90;;;;;;4196958;28;20474;-80
2023/02/13 08:42:30;;;;;;;11.67;5.83;;;6.70;99.90;;;;;;4195172;28;20458;-82
2023/02/13 08:44:32;;;;;;;11.90;6.23;;;6.70;99.90;;;;;;4191351;28;20652;-82
2023/02/13 08:46:36;;;;;;;10.60;5.63;;;6.70;99.90;;;;;;4193366;28;21065;-82
2023/02/13 08:48:38;;;;;;;11.47;6.00;;;6.80;99.90;;;;;;4192608;28;20449;-82
2023/02/13 08:50:40;;;;;;;10.87;5.93;;;6.50;99.90;;;;;;4193482;28;20474;-81
2023/02/13 08:52:41;;;;;;;11.23;6.03;;;7.20;99.90;;;;;;4193530;28;20459;-83
2023/02/13 08:54:46;;;;;;;12.73;6.40;;;6.70;99.90;;;;;;4193352;28;20478;-80
2023/02/13 08:56:48;;;;;;;10.70;5.90;;;6.70;99.90;;;;;;4194305;28;20960;-82
2023/02/13 08:58:50;;;;;;;13.33;6.60;;;6.80;99.90;;;;;;4193610;28;20462;-82
2023/02/13 09:00:52;;;;;;;12.80;6.70;;;6.80;99.90;;;;;;4195130;28;20502;-82
2023/02/13 09:02:59;;;;;;;12.33;6.00;;;6.80;99.90;;;;;;4198636;28;20463;-82
2023/02/13 09:05:01;;;;;;;11.07;5.40;;;6.80;99.90;;;;;;4194363;28;20466;-79
2023/02/13 09:07:04;;;;;;;10.23;5.53;;;6.80;99.90;;;;;;4197338;28;20987;-82
2023/02/13 09:09:06;;;;;;;9.93;5.67;;;6.80;99.90;;;;;;4198591;28;20849;-81
2023/02/13 09:11:09;;;;;;;13.27;5.87;;;6.80;99.90;;;;;;4196632;28;21344;-80
2023/02/13 09:13:11;;;;;;;11.90;6.63;;;6.80;99.90;;;;;;4197318;28;20447;-82
2023/02/13 09:15:13;;;;;;;13.77;5.93;;;6.80;99.90;;;;;;4197249;28;20454;-82
2023/02/13 09:17:17;;;;;;;11.83;5.90;;;6.80;99.90;;;;;;4197483;28;21413;-82
2023/02/13 09:19:21;;;;;;;11.27;5.70;;;6.80;99.90;;;;;;4197690;28;20459;-80
2023/02/13 09:21:23;;;;;;;9.90;5.63;;;6.80;99.90;;;;;;4188983;28;20545;-81
2023/02/13 09:23:25;;;;;;;11.20;5.90;;;6.70;99.90;;;;;;4194235;28;20454;-80
2023/02/13 09:25:27;;;;;;;12.33;6.50;;;6.80;99.90;;;;;;4196508;28;20975;-81
2023/02/13 09:27:29;;;;;;;9.97;5.80;;;6.80;99.90;;;;;;4198646;28;20455;-80
2023/02/13 09:29:32;;;;;;;10.83;5.97;;;6.90;99.90;;;;;;4196105;28;20459;-81
2023/02/13 09:31:34;;;;;;;11.73;6.03;;;6.90;99.90;;;;;;4197940;28;20550;-82
2023/02/13 09:33:37;;;;;;;12.20;6.27;;;6.90;99.90;;;;;;4196364;28;20988;-81
2023/02/13 09:35:41;;;;;;;12.50;5.83;;;7.00;99.90;;;;;;4194886;28;21178;-80
2023/02/13 09:37:44;;;;;;;11.03;6.13;;;7.00;99.90;;;;;;4210724;28;20450;-80
2023/02/13 09:39:46;;;;;;;11.67;6.40;;;7.00;99.90;;;;;;4196141;28;20555;-81
2023/02/13 09:41:53;;;;;;;11.97;6.43;;;7.00;99.90;;;;;;4196858;28;21063;-81
2023/02/13 09:43:59;;;;;;;11.63;6.00;;;7.00;99.90;;;;;;4198126;28;20463;-81
2023/02/13 09:46:08;;;;;;;14.50;7.17;;;7.00;99.90;;;;;;4198066;28;20613;-81
2023/02/13 09:48:17;;;;;;;15.70;6.87;;;7.00;99.90;;;;;;4199912;28;20463;-79
2023/02/13 09:50:23;;;;;;;9.00;5.47;;;7.00;99.90;;;;;;4196582;28;20450;-80
2023/02/13 09:52:31;;;;;;;13.87;6.63;;;7.10;99.90;;;;;;4199584;28;20953;-80
2023/02/13 09:54:34;;;;;;;15.67;6.17;;;7.20;99.90;;;;;;4193883;28;20462;-79
2023/02/13 09:56:48;;;;;;;12.17;6.73;;;7.10;99.90;;;;;;4199840;28;20455;-80
2023/02/13 09:58:55;;;;;;;12.70;6.23;;;7.10;99.90;;;;;;4213577;28;20451;-79
2023/02/13 10:01:00;;;;;;;10.80;6.07;;;7.10;99.90;;;;;;4199057;28;20494;-80
2023/02/13 10:03:20;;;;;;;11.93;6.47;;;7.10;99.90;;;;;;4196924;28;20835;-80
2023/02/13 10:05:40;;;;;;;12.40;6.07;;;7.10;99.90;;;;;;4196778;28;20505;-81
2023/02/13 10:07:48;;;;;;;14.57;6.37;;;7.10;99.90;;;;;;4194819;28;20467;-80
2023/02/13 10:09:58;;;;;;;11.60;6.27;;;7.10;99.90;;;;;;4197090;28;20455;-80
2023/02/13 10:12:23;;;;;;;12.27;6.20;;;7.20;99.90;;;;;;4189181;28;20889;-81
2023/02/13 10:14:31;;;;;;;9.90;5.50;;;7.10;99.90;;;;;;4195271;28;20451;-81
2023/02/13 10:16:38;;;;;;;9.47;5.37;;;7.20;99.90;;;;;;4195283;28;20811;-81
2023/02/13 10:18:47;;;;;;;13.07;5.70;;;7.20;99.90;;;;;;4194332;28;20460;-80
2023/02/13 10:20:52;;;;;;;9.83;5.13;;;7.20;99.90;;;;;;4197248;28;20494;-80
2023/02/13 10:23:03;;;;;;;10.93;5.77;;;7.20;99.90;;;;;;4196850;28;20450;-81
2023/02/13 10:25:10;;;;;;;11.47;5.90;;;7.10;99.90;;;;;;4210178;28;20454;-81
2023/02/13 10:27:21;;;;;;;10.17;5.50;;;7.20;99.90;;;;;;4195453;28;20968;-79
2023/02/13 10:31:53;;;;;;;10.73;5.37;;;7.20;99.90;;;;;;4195909;28;20463;-80
2023/02/13 10:34:02;;;;;;;9.60;4.77;;;7.20;99.90;;;;;;4194295;28;20465;-81
2023/02/13 10:36:11;;;;;;;7.43;4.33;;;7.20;99.90;;;;;;4194641;28;20494;-81
2023/02/13 10:38:19;;;;;;;7.17;4.13;;;7.30;99.90;;;;;;4197055;28;20468;-80
2023/02/13 10:40:22;;;;;;;7.07;4.33;;;7.30;99.90;;;;;;4196784;28;21012;-80
2023/02/13 10:42:32;;;;;;;8.77;4.67;;;7.30;99.90;;;;;;4194352;28;21044;-77
2023/02/13 10:44:47;;;;;;;10.67;5.20;;;7.40;99.90;;;;;;4193598;28;20452;-79
2023/02/13 10:46:59;;;;;;;8.77;4.97;;;7.40;99.90;;;;;;4195349;28;20471;-80
2023/02/13 10:49:19;;;;;;;6.10;3.87;;;7.50;99.90;;;;;;4193764;28;20655;-80
2023/02/13 10:51:32;;;;;;;5.70;3.60;;;7.50;99.90;;;;;;4197841;28;20486;-81
2023/02/13 10:53:49;;;;;;;6.20;3.63;;;7.50;99.90;;;;;;4194555;28;20455;-80
2023/02/13 10:56:17;;;;;;;6.00;3.53;;;7.60;99.90;;;;;;4196575;28;20487;-80
2023/02/13 10:58:24;;;;;;;6.17;3.73;;;7.60;99.90;;;;;;4196821;28;20527;-80
2023/02/13 11:00:33;;;;;;;5.07;3.13;;;7.70;99.90;;;;;;4194389;28;20495;-80
2023/02/13 11:02:35;;;;;;;4.60;3.20;;;7.70;99.90;;;;;;4193634;28;20458;-80
2023/02/13 11:04:40;;;;;;;4.47;3.17;;;7.80;99.90;;;;;;4196316;28;21040;-79
2023/02/13 11:06:46;;;;;;;3.33;2.27;;;7.80;99.90;;;;;;4192712;28;20860;-80
2023/02/13 11:08:52;;;;;;;3.60;2.40;;;7.80;99.90;;;;;;4197051;28;20452;-79
2023/02/13 11:10:54;;;;;;;3.33;2.57;;;7.70;99.90;;;;;;4193273;28;20838;-79
2023/02/13 11:12:56;;;;;;;3.87;2.30;;;7.80;99.90;;;;;;4194222;28;20522;-79
2023/02/13 11:15:01;;;;;;;4.90;2.10;;;7.70;99.90;;;;;;4194512;28;20502;-79
2023/02/13 11:17:05;;;;;;;4.67;2.40;;;7.70;99.90;;;;;;4195073;28;20891;-79
2023/02/13 11:19:16;;;;;;;4.03;2.70;;;7.70;99.90;;;;;;4191777;28;20451;-80
2023/02/13 11:21:22;;;;;;;3.67;2.70;;;7.70;99.90;;;;;;4193737;28;20491;-80
2023/02/13 11:23:35;;;;;;;5.23;2.60;;;7.70;99.90;;;;;;4194076;28;20456;-80
2023/02/13 11:25:38;;;;;;;5.63;2.70;;;7.70;99.90;;;;;;4192247;28;20482;-81
2023/02/13 11:27:41;;;;;;;5.63;3.17;;;7.80;99.90;;;;;;4194140;28;20455;-81
2023/02/13 11:29:53;;;;;;;6.23;3.40;;;7.80;99.90;;;;;;4192354;28;20475;-81
2023/02/13 11:32:17;;;;;;;6.90;3.90;;;7.80;99.90;;;;;;4194318;28;20471;-82
2023/02/13 11:34:25;;;;;;;7.07;4.57;;;7.90;99.90;;;;;;4209504;28;20447;-81